KBBF

Brazos 133

Brazos 133, Texas, USA
METAR KBBF 260315Z AUTO 21010KT 3SM BR OVC003 23/22 A2999 RMK A01
Observed Flight Rules
Feb-26 @ 03:15 UTC (12 minutes ago) Instrument Flight Rules
Wind Visibility Clouds Conditions
210° at 10 knots 3 miles
  • Overcast at 300' AGL
  • Mist
Temperatures Readings
Current 23°C / 73°F
Dewpoint 22°C / 72°F
Humidity 94%
Altimeter 29.99" Hg
Pressure 1016 hPa
Elevation 36
METAR KBBF 260315Z AUTO 21010KT 3SM BR OVC003 23/22 A2999 RMK A01
Observed Flight Rules
Feb-26 @ 03:15 UTC
(12 minutes ago)
LIFR
Wind Visibility
210° at 10 knots 3 miles
Clouds
  • Overcast at 300' AGL
Conditions
  • Mist
Temperature Dewpoint
23°C / 73°F 22°C / 72°F
Humidity Altimeter Pressure
94% 29.99" Hg 1016 hPa